sensor_id;sensor_type;location;lat;lon;timestamp;P1;durP1;ratioP1;P2;durP2;ratioP2
63280;SDS011;49406;51.044;3.766;2024-01-30T00:02:31;3.60;;;2.10;;
63280;SDS011;49406;51.044;3.766;2024-01-30T00:05:07;10.80;;;2.50;;
63280;SDS011;49406;51.044;3.766;2024-01-30T00:07:42;5.10;;;2.70;;
63280;SDS011;49406;51.044;3.766;2024-01-30T00:10:16;9.60;;;3.40;;
63280;SDS011;49406;51.044;3.766;2024-01-30T00:12:52;6.60;;;2.80;;
63280;SDS011;49406;51.044;3.766;2024-01-30T00:15:26;3.50;;;2.40;;
63280;SDS011;49406;51.044;3.766;2024-01-30T00:18:01;7.00;;;3.60;;
63280;SDS011;49406;51.044;3.766;2024-01-30T00:23:09;5.40;;;3.10;;
63280;SDS011;49406;51.044;3.766;2024-01-30T00:28:17;6.30;;;1.90;;
63280;SDS011;49406;51.044;3.766;2024-01-30T00:30:51;2.90;;;2.10;;
63280;SDS011;49406;51.044;3.766;2024-01-30T00:33:26;3.40;;;2.20;;
63280;SDS011;49406;51.044;3.766;2024-01-30T00:36:01;4.70;;;3.30;;
63280;SDS011;49406;51.044;3.766;2024-01-30T00:38:36;6.30;;;4.90;;
63280;SDS011;49406;51.044;3.766;2024-01-30T00:41:12;5.00;;;2.90;;
63280;SDS011;49406;51.044;3.766;2024-01-30T00:43:47;5.40;;;2.90;;
63280;SDS011;49406;51.044;3.766;2024-01-30T00:46:21;7.30;;;2.60;;
63280;SDS011;49406;51.044;3.766;2024-01-30T00:48:56;6.70;;;4.20;;
63280;SDS011;49406;51.044;3.766;2024-01-30T00:51:31;4.40;;;2.60;;
63280;SDS011;49406;51.044;3.766;2024-01-30T00:54:06;3.50;;;1.90;;
63280;SDS011;49406;51.044;3.766;2024-01-30T00:56:40;3.90;;;2.00;;
63280;SDS011;49406;51.044;3.766;2024-01-30T00:59:15;4.30;;;2.90;;
63280;SDS011;49406;51.044;3.766;2024-01-30T01:01:50;4.30;;;2.80;;
63280;SDS011;49406;51.044;3.766;2024-01-30T01:04:25;4.40;;;2.40;;
63280;SDS011;49406;51.044;3.766;2024-01-30T01:06:59;4.40;;;2.80;;
63280;SDS011;49406;51.044;3.766;2024-01-30T01:09:34;3.50;;;2.40;;
63280;SDS011;49406;51.044;3.766;2024-01-30T01:12:09;3.90;;;2.00;;
63280;SDS011;49406;51.044;3.766;2024-01-30T01:14:44;5.70;;;4.20;;
63280;SDS011;49406;51.044;3.766;2024-01-30T01:17:18;4.40;;;2.50;;
63280;SDS011;49406;51.044;3.766;2024-01-30T01:19:53;6.90;;;2.70;;
63280;SDS011;49406;51.044;3.766;2024-01-30T01:22:28;3.20;;;1.90;;
63280;SDS011;49406;51.044;3.766;2024-01-30T01:25:03;3.70;;;2.60;;
63280;SDS011;49406;51.044;3.766;2024-01-30T01:27:40;4.60;;;2.80;;
63280;SDS011;49406;51.044;3.766;2024-01-30T01:30:16;5.20;;;2.30;;
63280;SDS011;49406;51.044;3.766;2024-01-30T01:32:53;4.00;;;2.20;;
63280;SDS011;49406;51.044;3.766;2024-01-30T01:35:29;3.40;;;1.90;;
63280;SDS011;49406;51.044;3.766;2024-01-30T01:38:04;8.40;;;3.30;;
63280;SDS011;49406;51.044;3.766;2024-01-30T01:40:38;5.40;;;2.30;;
63280;SDS011;49406;51.044;3.766;2024-01-30T01:43:15;5.10;;;3.00;;
63280;SDS011;49406;51.044;3.766;2024-01-30T01:45:50;6.70;;;4.20;;
63280;SDS011;49406;51.044;3.766;2024-01-30T01:48:25;1.90;;;1.80;;
63280;SDS011;49406;51.044;3.766;2024-01-30T01:51:01;3.40;;;1.90;;
63280;SDS011;49406;51.044;3.766;2024-01-30T01:53:36;1.80;;;1.60;;
63280;SDS011;49406;51.044;3.766;2024-01-30T01:56:11;5.80;;;3.40;;
63280;SDS011;49406;51.044;3.766;2024-01-30T01:58:46;5.10;;;3.40;;
63280;SDS011;49406;51.044;3.766;2024-01-30T02:01:22;6.00;;;3.10;;
63280;SDS011;49406;51.044;3.766;2024-01-30T02:03:58;5.10;;;3.80;;
63280;SDS011;49406;51.044;3.766;2024-01-30T02:06:33;4.10;;;1.90;;
63280;SDS011;49406;51.044;3.766;2024-01-30T02:09:08;5.00;;;2.30;;
63280;SDS011;49406;51.044;3.766;2024-01-30T02:11:42;2.50;;;1.90;;
63280;SDS011;49406;51.044;3.766;2024-01-30T02:16:50;9.90;;;4.90;;
63280;SDS011;49406;51.044;3.766;2024-01-30T02:19:25;4.00;;;2.50;;
63280;SDS011;49406;51.044;3.766;2024-01-30T02:21:59;7.50;;;3.20;;
63280;SDS011;49406;51.044;3.766;2024-01-30T02:24:34;0.50;;;0.50;;
63280;SDS011;49406;51.044;3.766;2024-01-30T02:27:08;3.80;;;2.00;;
63280;SDS011;49406;51.044;3.766;2024-01-30T02:29:43;4.00;;;2.70;;
63280;SDS011;49406;51.044;3.766;2024-01-30T02:32:18;3.40;;;2.00;;
63280;SDS011;49406;51.044;3.766;2024-01-30T02:34:52;8.80;;;4.40;;
63280;SDS011;49406;51.044;3.766;2024-01-30T02:37:27;4.50;;;2.20;;
63280;SDS011;49406;51.044;3.766;2024-01-30T02:40:01;3.30;;;1.90;;
63280;SDS011;49406;51.044;3.766;2024-01-30T02:42:36;6.60;;;4.20;;
63280;SDS011;49406;51.044;3.766;2024-01-30T02:45:12;4.70;;;2.80;;
63280;SDS011;49406;51.044;3.766;2024-01-30T02:47:47;3.40;;;1.80;;
63280;SDS011;49406;51.044;3.766;2024-01-30T02:50:22;5.10;;;2.80;;
63280;SDS011;49406;51.044;3.766;2024-01-30T02:52:56;2.50;;;2.20;;
63280;SDS011;49406;51.044;3.766;2024-01-30T02:58:04;5.20;;;2.00;;
63280;SDS011;49406;51.044;3.766;2024-01-30T03:00:38;1.90;;;1.40;;
63280;SDS011;49406;51.044;3.766;2024-01-30T03:03:13;2.40;;;1.30;;
63280;SDS011;49406;51.044;3.766;2024-01-30T03:05:47;4.50;;;2.20;;
63280;SDS011;49406;51.044;3.766;2024-01-30T03:08:22;5.20;;;2.90;;
63280;SDS011;49406;51.044;3.766;2024-01-30T03:10:56;6.70;;;3.10;;
63280;SDS011;49406;51.044;3.766;2024-01-30T03:13:31;7.00;;;4.50;;
63280;SDS011;49406;51.044;3.766;2024-01-30T03:16:06;3.80;;;2.20;;
63280;SDS011;49406;51.044;3.766;2024-01-30T03:18:42;6.20;;;4.40;;
63280;SDS011;49406;51.044;3.766;2024-01-30T03:21:17;8.00;;;3.20;;
63280;SDS011;49406;51.044;3.766;2024-01-30T03:23:51;2.70;;;1.90;;
63280;SDS011;49406;51.044;3.766;2024-01-30T03:26:26;26.70;;;2.80;;
63280;SDS011;49406;51.044;3.766;2024-01-30T03:29:00;4.30;;;2.60;;
63280;SDS011;49406;51.044;3.766;2024-01-30T03:31:35;5.80;;;3.20;;
63280;SDS011;49406;51.044;3.766;2024-01-30T03:34:09;4.60;;;3.00;;
63280;SDS011;49406;51.044;3.766;2024-01-30T03:36:44;7.80;;;3.20;;
63280;SDS011;49406;51.044;3.766;2024-01-30T03:39:18;4.50;;;2.50;;
63280;SDS011;49406;51.044;3.766;2024-01-30T03:41:53;6.60;;;3.20;;
63280;SDS011;49406;51.044;3.766;2024-01-30T03:44:27;3.50;;;2.30;;
63280;SDS011;49406;51.044;3.766;2024-01-30T03:49:35;5.90;;;3.80;;
63280;SDS011;49406;51.044;3.766;2024-01-30T03:52:10;5.40;;;3.00;;
63280;SDS011;49406;51.044;3.766;2024-01-30T03:54:44;5.40;;;2.20;;
63280;SDS011;49406;51.044;3.766;2024-01-30T03:57:19;6.80;;;4.40;;
63280;SDS011;49406;51.044;3.766;2024-01-30T03:59:53;6.00;;;3.90;;
63280;SDS011;49406;51.044;3.766;2024-01-30T04:02:28;4.60;;;2.20;;
63280;SDS011;49406;51.044;3.766;2024-01-30T04:05:03;6.60;;;2.10;;
63280;SDS011;49406;51.044;3.766;2024-01-30T04:07:38;7.80;;;3.60;;
63280;SDS011;49406;51.044;3.766;2024-01-30T04:10:12;5.70;;;2.80;;
63280;SDS011;49406;51.044;3.766;2024-01-30T04:12:47;6.80;;;3.10;;
63280;SDS011;49406;51.044;3.766;2024-01-30T04:15:21;4.40;;;2.30;;
63280;SDS011;49406;51.044;3.766;2024-01-30T04:17:58;3.90;;;2.40;;
63280;SDS011;49406;51.044;3.766;2024-01-30T04:20:33;7.20;;;4.10;;
63280;SDS011;49406;51.044;3.766;2024-01-30T04:23:07;5.80;;;4.10;;
63280;SDS011;49406;51.044;3.766;2024-01-30T04:25:42;5.40;;;3.20;;
63280;SDS011;49406;51.044;3.766;2024-01-30T04:28:16;5.70;;;3.80;;
63280;SDS011;49406;51.044;3.766;2024-01-30T04:30:51;1.80;;;1.00;;
63280;SDS011;49406;51.044;3.766;2024-01-30T04:33:25;6.10;;;2.60;;
63280;SDS011;49406;51.044;3.766;2024-01-30T04:36:00;5.10;;;2.50;;
63280;SDS011;49406;51.044;3.766;2024-01-30T04:38:34;6.00;;;3.70;;
63280;SDS011;49406;51.044;3.766;2024-01-30T04:41:09;4.70;;;2.50;;
63280;SDS011;49406;51.044;3.766;2024-01-30T04:43:43;4.30;;;3.20;;
63280;SDS011;49406;51.044;3.766;2024-01-30T04:46:18;4.10;;;2.50;;
63280;SDS011;49406;51.044;3.766;2024-01-30T04:48:52;3.80;;;2.90;;
63280;SDS011;49406;51.044;3.766;2024-01-30T04:51:27;6.80;;;4.40;;
63280;SDS011;49406;51.044;3.766;2024-01-30T04:54:02;5.70;;;4.00;;
63280;SDS011;49406;51.044;3.766;2024-01-30T04:56:36;4.20;;;1.40;;
63280;SDS011;49406;51.044;3.766;2024-01-30T04:59:11;10.90;;;3.20;;
63280;SDS011;49406;51.044;3.766;2024-01-30T05:01:46;13.80;;;3.00;;
63280;SDS011;49406;51.044;3.766;2024-01-30T05:04:20;6.80;;;2.80;;
63280;SDS011;49406;51.044;3.766;2024-01-30T05:06:55;6.70;;;2.20;;
63280;SDS011;49406;51.044;3.766;2024-01-30T05:09:29;5.20;;;3.40;;
63280;SDS011;49406;51.044;3.766;2024-01-30T05:12:04;3.60;;;1.70;;
63280;SDS011;49406;51.044;3.766;2024-01-30T05:14:39;7.50;;;3.60;;
63280;SDS011;49406;51.044;3.766;2024-01-30T05:17:14;5.90;;;2.70;;
63280;SDS011;49406;51.044;3.766;2024-01-30T05:19:48;5.10;;;2.40;;
63280;SDS011;49406;51.044;3.766;2024-01-30T05:22:23;6.30;;;2.90;;
63280;SDS011;49406;51.044;3.766;2024-01-30T05:24:57;5.40;;;1.70;;
63280;SDS011;49406;51.044;3.766;2024-01-30T05:27:32;9.10;;;2.70;;
63280;SDS011;49406;51.044;3.766;2024-01-30T05:30:07;18.40;;;2.20;;
63280;SDS011;49406;51.044;3.766;2024-01-30T05:32:43;8.10;;;2.90;;
63280;SDS011;49406;51.044;3.766;2024-01-30T05:35:17;5.10;;;3.30;;
63280;SDS011;49406;51.044;3.766;2024-01-30T05:40:26;4.60;;;2.80;;
63280;SDS011;49406;51.044;3.766;2024-01-30T05:43:01;5.40;;;2.90;;
63280;SDS011;49406;51.044;3.766;2024-01-30T05:45:35;7.30;;;3.10;;
63280;SDS011;49406;51.044;3.766;2024-01-30T05:48:10;10.10;;;3.10;;
63280;SDS011;49406;51.044;3.766;2024-01-30T05:50:44;6.10;;;3.50;;
63280;SDS011;49406;51.044;3.766;2024-01-30T05:53:19;13.90;;;2.40;;
63280;SDS011;49406;51.044;3.766;2024-01-30T05:55:53;5.00;;;3.40;;
63280;SDS011;49406;51.044;3.766;2024-01-30T05:58:28;5.30;;;3.40;;
63280;SDS011;49406;51.044;3.766;2024-01-30T06:01:03;4.30;;;2.90;;
63280;SDS011;49406;51.044;3.766;2024-01-30T06:06:15;7.90;;;3.90;;
63280;SDS011;49406;51.044;3.766;2024-01-30T06:08:49;5.90;;;3.30;;
63280;SDS011;49406;51.044;3.766;2024-01-30T06:11:26;4.10;;;2.30;;
63280;SDS011;49406;51.044;3.766;2024-01-30T06:14:01;10.00;;;3.80;;
63280;SDS011;49406;51.044;3.766;2024-01-30T06:16:35;5.40;;;3.50;;
63280;SDS011;49406;51.044;3.766;2024-01-30T06:21:43;3.90;;;3.30;;
63280;SDS011;49406;51.044;3.766;2024-01-30T06:24:18;7.40;;;4.40;;
63280;SDS011;49406;51.044;3.766;2024-01-30T06:26:52;7.30;;;4.10;;
63280;SDS011;49406;51.044;3.766;2024-01-30T06:29:27;8.60;;;4.60;;
63280;SDS011;49406;51.044;3.766;2024-01-30T06:32:02;7.00;;;4.30;;
63280;SDS011;49406;51.044;3.766;2024-01-30T06:34:37;5.60;;;2.20;;
63280;SDS011;49406;51.044;3.766;2024-01-30T06:37:13;7.80;;;4.50;;
63280;SDS011;49406;51.044;3.766;2024-01-30T06:39:47;1.60;;;1.30;;
63280;SDS011;49406;51.044;3.766;2024-01-30T06:42:22;7.50;;;3.40;;
63280;SDS011;49406;51.044;3.766;2024-01-30T06:44:56;4.20;;;2.90;;
63280;SDS011;49406;51.044;3.766;2024-01-30T06:47:31;4.30;;;2.80;;
63280;SDS011;49406;51.044;3.766;2024-01-30T06:50:06;3.60;;;2.90;;
63280;SDS011;49406;51.044;3.766;2024-01-30T06:52:42;12.50;;;3.90;;
63280;SDS011;49406;51.044;3.766;2024-01-30T06:55:16;5.40;;;3.40;;
63280;SDS011;49406;51.044;3.766;2024-01-30T06:57:51;6.20;;;3.10;;
63280;SDS011;49406;51.044;3.766;2024-01-30T07:00:25;3.90;;;2.50;;
63280;SDS011;49406;51.044;3.766;2024-01-30T07:03:00;10.10;;;3.20;;
63280;SDS011;49406;51.044;3.766;2024-01-30T07:05:34;6.80;;;3.10;;
63280;SDS011;49406;51.044;3.766;2024-01-30T07:08:09;6.10;;;3.10;;
63280;SDS011;49406;51.044;3.766;2024-01-30T07:10:43;4.60;;;1.90;;
63280;SDS011;49406;51.044;3.766;2024-01-30T07:13:18;11.70;;;2.90;;
63280;SDS011;49406;51.044;3.766;2024-01-30T07:15:53;4.10;;;2.40;;
63280;SDS011;49406;51.044;3.766;2024-01-30T07:18:28;7.20;;;4.10;;
63280;SDS011;49406;51.044;3.766;2024-01-30T07:21:02;3.50;;;2.20;;
63280;SDS011;49406;51.044;3.766;2024-01-30T07:23:37;5.00;;;3.30;;
63280;SDS011;49406;51.044;3.766;2024-01-30T07:26:13;4.30;;;2.90;;
63280;SDS011;49406;51.044;3.766;2024-01-30T07:28:48;4.80;;;2.70;;
63280;SDS011;49406;51.044;3.766;2024-01-30T07:31:22;3.20;;;2.90;;
63280;SDS011;49406;51.044;3.766;2024-01-30T07:33:57;7.30;;;3.90;;
63280;SDS011;49406;51.044;3.766;2024-01-30T07:36:31;5.10;;;2.30;;
63280;SDS011;49406;51.044;3.766;2024-01-30T07:39:06;5.20;;;3.10;;
63280;SDS011;49406;51.044;3.766;2024-01-30T07:41:41;5.40;;;3.20;;
63280;SDS011;49406;51.044;3.766;2024-01-30T07:44:16;2.70;;;1.70;;
63280;SDS011;49406;51.044;3.766;2024-01-30T07:46:50;4.20;;;3.10;;
63280;SDS011;49406;51.044;3.766;2024-01-30T07:49:26;7.60;;;5.10;;
63280;SDS011;49406;51.044;3.766;2024-01-30T07:52:01;8.80;;;4.50;;
63280;SDS011;49406;51.044;3.766;2024-01-30T07:57:25;6.60;;;3.80;;
63280;SDS011;49406;51.044;3.766;2024-01-30T07:59:59;4.00;;;2.90;;
63280;SDS011;49406;51.044;3.766;2024-01-30T08:02:35;10.40;;;3.80;;
63280;SDS011;49406;51.044;3.766;2024-01-30T08:05:10;5.70;;;2.80;;
63280;SDS011;49406;51.044;3.766;2024-01-30T08:07:46;4.80;;;2.90;;
63280;SDS011;49406;51.044;3.766;2024-01-30T08:10:21;5.30;;;3.30;;
63280;SDS011;49406;51.044;3.766;2024-01-30T08:12:56;5.20;;;2.40;;
63280;SDS011;49406;51.044;3.766;2024-01-30T08:15:30;6.80;;;4.40;;
63280;SDS011;49406;51.044;3.766;2024-01-30T08:18:05;4.00;;;2.40;;
63280;SDS011;49406;51.044;3.766;2024-01-30T08:20:40;10.40;;;6.90;;
63280;SDS011;49406;51.044;3.766;2024-01-30T08:23:15;6.00;;;4.40;;
63280;SDS011;49406;51.044;3.766;2024-01-30T08:25:49;8.30;;;3.20;;
63280;SDS011;49406;51.044;3.766;2024-01-30T08:28:24;9.10;;;5.40;;
63280;SDS011;49406;51.044;3.766;2024-01-30T08:30:59;6.30;;;3.20;;
63280;SDS011;49406;51.044;3.766;2024-01-30T08:33:34;9.00;;;4.70;;
63280;SDS011;49406;51.044;3.766;2024-01-30T08:36:09;5.40;;;3.70;;
63280;SDS011;49406;51.044;3.766;2024-01-30T08:38:43;5.60;;;4.40;;
63280;SDS011;49406;51.044;3.766;2024-01-30T08:41:18;5.20;;;3.10;;
63280;SDS011;49406;51.044;3.766;2024-01-30T08:43:53;6.70;;;3.50;;
63280;SDS011;49406;51.044;3.766;2024-01-30T08:46:27;7.70;;;4.50;;
63280;SDS011;49406;51.044;3.766;2024-01-30T08:49:02;12.80;;;4.00;;
63280;SDS011;49406;51.044;3.766;2024-01-30T08:51:36;5.90;;;3.60;;
63280;SDS011;49406;51.044;3.766;2024-01-30T08:54:11;4.30;;;2.60;;
63280;SDS011;49406;51.044;3.766;2024-01-30T08:56:45;4.50;;;2.90;;
63280;SDS011;49406;51.044;3.766;2024-01-30T08:59:20;5.40;;;3.30;;
63280;SDS011;49406;51.044;3.766;2024-01-30T09:01:54;4.20;;;3.30;;
63280;SDS011;49406;51.044;3.766;2024-01-30T09:04:30;5.80;;;3.50;;
63280;SDS011;49406;51.044;3.766;2024-01-30T09:07:05;3.40;;;2.30;;
63280;SDS011;49406;51.044;3.766;2024-01-30T09:09:41;9.90;;;2.50;;
63280;SDS011;49406;51.044;3.766;2024-01-30T09:12:16;10.90;;;3.80;;
63280;SDS011;49406;51.044;3.766;2024-01-30T09:14:51;5.30;;;2.10;;
63280;SDS011;49406;51.044;3.766;2024-01-30T09:17:26;4.10;;;2.00;;
63280;SDS011;49406;51.044;3.766;2024-01-30T09:20:01;10.00;;;2.70;;
63280;SDS011;49406;51.044;3.766;2024-01-30T09:22:36;3.60;;;3.30;;
63280;SDS011;49406;51.044;3.766;2024-01-30T09:25:11;11.00;;;4.00;;
63280;SDS011;49406;51.044;3.766;2024-01-30T09:27:45;6.80;;;2.80;;
63280;SDS011;49406;51.044;3.766;2024-01-30T09:30:20;4.10;;;2.80;;
63280;SDS011;49406;51.044;3.766;2024-01-30T09:32:54;4.70;;;2.20;;
63280;SDS011;49406;51.044;3.766;2024-01-30T09:35:29;3.90;;;2.00;;
63280;SDS011;49406;51.044;3.766;2024-01-30T09:38:04;3.30;;;1.70;;
63280;SDS011;49406;51.044;3.766;2024-01-30T09:40:38;2.10;;;1.30;;
63280;SDS011;49406;51.044;3.766;2024-01-30T09:43:15;3.40;;;2.60;;
63280;SDS011;49406;51.044;3.766;2024-01-30T09:45:55;4.00;;;1.10;;
63280;SDS011;49406;51.044;3.766;2024-01-30T09:48:32;1.50;;;1.20;;
63280;SDS011;49406;51.044;3.766;2024-01-30T09:51:07;2.10;;;1.30;;
63280;SDS011;49406;51.044;3.766;2024-01-30T09:53:43;2.50;;;0.70;;
63280;SDS011;49406;51.044;3.766;2024-01-30T09:56:18;4.70;;;1.50;;
63280;SDS011;49406;51.044;3.766;2024-01-30T09:58:53;0.50;;;0.30;;
63280;SDS011;49406;51.044;3.766;2024-01-30T10:01:27;1.20;;;0.90;;
63280;SDS011;49406;51.044;3.766;2024-01-30T10:04:03;3.50;;;1.40;;
63280;SDS011;49406;51.044;3.766;2024-01-30T10:06:38;0.60;;;0.50;;
63280;SDS011;49406;51.044;3.766;2024-01-30T10:09:14;17.10;;;1.40;;
63280;SDS011;49406;51.044;3.766;2024-01-30T10:11:50;2.70;;;0.90;;
63280;SDS011;49406;51.044;3.766;2024-01-30T10:14:25;0.20;;;0.20;;
63280;SDS011;49406;51.044;3.766;2024-01-30T10:17:00;1.70;;;1.00;;
63280;SDS011;49406;51.044;3.766;2024-01-30T10:19:35;0.80;;;0.30;;
63280;SDS011;49406;51.044;3.766;2024-01-30T10:22:10;0.50;;;0.40;;
63280;SDS011;49406;51.044;3.766;2024-01-30T10:24:45;1.90;;;0.80;;
63280;SDS011;49406;51.044;3.766;2024-01-30T10:27:25;4.40;;;1.30;;
63280;SDS011;49406;51.044;3.766;2024-01-30T10:30:01;1.80;;;0.60;;
63280;SDS011;49406;51.044;3.766;2024-01-30T10:32:36;1.50;;;0.30;;
63280;SDS011;49406;51.044;3.766;2024-01-30T10:35:10;2.20;;;0.70;;
63280;SDS011;49406;51.044;3.766;2024-01-30T10:37:45;3.50;;;0.80;;
63280;SDS011;49406;51.044;3.766;2024-01-30T10:40:21;9.00;;;2.80;;
63280;SDS011;49406;51.044;3.766;2024-01-30T10:43:00;0.40;;;0.20;;
63280;SDS011;49406;51.044;3.766;2024-01-30T10:45:36;2.50;;;1.00;;
63280;SDS011;49406;51.044;3.766;2024-01-30T10:48:13;2.20;;;0.80;;
63280;SDS011;49406;51.044;3.766;2024-01-30T10:50:49;1.40;;;0.60;;
63280;SDS011;49406;51.044;3.766;2024-01-30T10:53:26;2.20;;;1.00;;
63280;SDS011;49406;51.044;3.766;2024-01-30T10:56:02;2.30;;;0.60;;
63280;SDS011;49406;51.044;3.766;2024-01-30T10:58:39;4.20;;;0.70;;
63280;SDS011;49406;51.044;3.766;2024-01-30T11:01:14;1.80;;;0.60;;
63280;SDS011;49406;51.044;3.766;2024-01-30T11:03:49;1.10;;;0.60;;
63280;SDS011;49406;51.044;3.766;2024-01-30T11:06:25;1.40;;;0.40;;
63280;SDS011;49406;51.044;3.766;2024-01-30T11:09:02;0.80;;;0.60;;
63280;SDS011;49406;51.044;3.766;2024-01-30T11:11:51;8.80;;;0.90;;
63280;SDS011;49406;51.044;3.766;2024-01-30T11:14:31;1.30;;;0.20;;
63280;SDS011;49406;51.044;3.766;2024-01-30T11:17:06;1.10;;;0.60;;
63280;SDS011;49406;51.044;3.766;2024-01-30T11:22:21;1.80;;;1.10;;
63280;SDS011;49406;51.044;3.766;2024-01-30T11:27:30;1.70;;;0.70;;
63280;SDS011;49406;51.044;3.766;2024-01-30T11:30:05;1.30;;;0.60;;
63280;SDS011;49406;51.044;3.766;2024-01-30T11:32:41;0.90;;;0.50;;
63280;SDS011;49406;51.044;3.766;2024-01-30T11:35:15;1.30;;;0.60;;
63280;SDS011;49406;51.044;3.766;2024-01-30T11:37:50;1.00;;;0.50;;
63280;SDS011;49406;51.044;3.766;2024-01-30T11:40:25;0.40;;;0.40;;
63280;SDS011;49406;51.044;3.766;2024-01-30T11:43:02;2.60;;;0.70;;
63280;SDS011;49406;51.044;3.766;2024-01-30T11:45:38;4.60;;;0.60;;
63280;SDS011;49406;51.044;3.766;2024-01-30T11:48:12;1.50;;;0.60;;
63280;SDS011;49406;51.044;3.766;2024-01-30T11:50:47;1.70;;;0.70;;
63280;SDS011;49406;51.044;3.766;2024-01-30T11:53:23;1.70;;;0.90;;
63280;SDS011;49406;51.044;3.766;2024-01-30T11:55:58;0.40;;;0.40;;
63280;SDS011;49406;51.044;3.766;2024-01-30T11:58:32;4.10;;;0.90;;
63280;SDS011;49406;51.044;3.766;2024-01-30T12:01:07;3.60;;;2.10;;
63280;SDS011;49406;51.044;3.766;2024-01-30T12:03:42;7.30;;;1.50;;
63280;SDS011;49406;51.044;3.766;2024-01-30T12:06:21;6.70;;;1.10;;
63280;SDS011;49406;51.044;3.766;2024-01-30T12:08:58;3.10;;;1.10;;
63280;SDS011;49406;51.044;3.766;2024-01-30T12:11:44;1.00;;;0.50;;
63280;SDS011;49406;51.044;3.766;2024-01-30T12:14:18;2.10;;;0.90;;
63280;SDS011;49406;51.044;3.766;2024-01-30T12:19:29;0.20;;;0.20;;
63280;SDS011;49406;51.044;3.766;2024-01-30T12:22:04;0.40;;;0.30;;
63280;SDS011;49406;51.044;3.766;2024-01-30T12:24:39;1.60;;;0.80;;
63280;SDS011;49406;51.044;3.766;2024-01-30T12:27:16;0.00;;;0.00;;
63280;SDS011;49406;51.044;3.766;2024-01-30T12:29:56;2.20;;;0.90;;
63280;SDS011;49406;51.044;3.766;2024-01-30T12:32:31;4.00;;;0.80;;
63280;SDS011;49406;51.044;3.766;2024-01-30T12:35:10;2.70;;;1.00;;
63280;SDS011;49406;51.044;3.766;2024-01-30T12:37:46;5.60;;;0.80;;
63280;SDS011;49406;51.044;3.766;2024-01-30T12:40:21;1.30;;;0.40;;
63280;SDS011;49406;51.044;3.766;2024-01-30T12:42:58;0.80;;;0.50;;
63280;SDS011;49406;51.044;3.766;2024-01-30T12:45:32;0.90;;;0.80;;
63280;SDS011;49406;51.044;3.766;2024-01-30T12:48:08;0.80;;;0.40;;
63280;SDS011;49406;51.044;3.766;2024-01-30T12:50:43;1.60;;;0.90;;
63280;SDS011;49406;51.044;3.766;2024-01-30T12:53:17;5.60;;;0.80;;
63280;SDS011;49406;51.044;3.766;2024-01-30T12:55:52;1.60;;;0.90;;
63280;SDS011;49406;51.044;3.766;2024-01-30T12:58:26;1.90;;;0.90;;
63280;SDS011;49406;51.044;3.766;2024-01-30T13:01:01;1.20;;;0.90;;
63280;SDS011;49406;51.044;3.766;2024-01-30T13:03:36;0.50;;;0.30;;
63280;SDS011;49406;51.044;3.766;2024-01-30T13:06:10;4.80;;;0.90;;
63280;SDS011;49406;51.044;3.766;2024-01-30T13:08:45;1.10;;;0.70;;
63280;SDS011;49406;51.044;3.766;2024-01-30T13:11:19;1.20;;;0.80;;
63280;SDS011;49406;51.044;3.766;2024-01-30T13:13:54;2.80;;;0.80;;
63280;SDS011;49406;51.044;3.766;2024-01-30T13:16:29;5.90;;;1.00;;
63280;SDS011;49406;51.044;3.766;2024-01-30T13:19:03;0.50;;;0.30;;
63280;SDS011;49406;51.044;3.766;2024-01-30T13:21:38;2.50;;;0.40;;
63280;SDS011;49406;51.044;3.766;2024-01-30T13:24:12;1.00;;;0.80;;
63280;SDS011;49406;51.044;3.766;2024-01-30T13:26:47;1.60;;;0.60;;
63280;SDS011;49406;51.044;3.766;2024-01-30T13:29:21;2.90;;;1.30;;
63280;SDS011;49406;51.044;3.766;2024-01-30T13:31:56;2.00;;;1.10;;
63280;SDS011;49406;51.044;3.766;2024-01-30T13:34:31;1.00;;;0.40;;
63280;SDS011;49406;51.044;3.766;2024-01-30T13:37:05;1.50;;;0.80;;
63280;SDS011;49406;51.044;3.766;2024-01-30T13:39:40;4.70;;;0.80;;
63280;SDS011;49406;51.044;3.766;2024-01-30T13:42:14;0.30;;;0.20;;
63280;SDS011;49406;51.044;3.766;2024-01-30T13:44:50;0.80;;;0.50;;
63280;SDS011;49406;51.044;3.766;2024-01-30T13:47:25;2.10;;;1.00;;
63280;SDS011;49406;51.044;3.766;2024-01-30T13:50:00;1.50;;;0.70;;
63280;SDS011;49406;51.044;3.766;2024-01-30T13:52:35;0.60;;;0.30;;
63280;SDS011;49406;51.044;3.766;2024-01-30T13:57:43;1.20;;;0.60;;
63280;SDS011;49406;51.044;3.766;2024-01-30T14:00:17;0.60;;;0.30;;
63280;SDS011;49406;51.044;3.766;2024-01-30T14:02:54;1.50;;;0.10;;
63280;SDS011;49406;51.044;3.766;2024-01-30T14:05:30;0.70;;;0.60;;
63280;SDS011;49406;51.044;3.766;2024-01-30T14:08:05;1.30;;;0.80;;
63280;SDS011;49406;51.044;3.766;2024-01-30T14:10:40;11.60;;;0.80;;
63280;SDS011;49406;51.044;3.766;2024-01-30T14:13:15;2.40;;;0.60;;
63280;SDS011;49406;51.044;3.766;2024-01-30T14:15:49;1.50;;;0.70;;
63280;SDS011;49406;51.044;3.766;2024-01-30T14:18:24;2.50;;;0.70;;
63280;SDS011;49406;51.044;3.766;2024-01-30T14:20:59;1.50;;;0.90;;
63280;SDS011;49406;51.044;3.766;2024-01-30T14:23:34;0.90;;;0.80;;
63280;SDS011;49406;51.044;3.766;2024-01-30T14:26:08;2.30;;;1.00;;
63280;SDS011;49406;51.044;3.766;2024-01-30T14:28:43;2.10;;;0.60;;
63280;SDS011;49406;51.044;3.766;2024-01-30T14:31:18;2.10;;;0.90;;
63280;SDS011;49406;51.044;3.766;2024-01-30T14:33:53;2.40;;;1.40;;
63280;SDS011;49406;51.044;3.766;2024-01-30T14:36:28;1.40;;;0.80;;
63280;SDS011;49406;51.044;3.766;2024-01-30T14:39:03;1.50;;;0.80;;
63280;SDS011;49406;51.044;3.766;2024-01-30T14:41:38;1.80;;;0.90;;
63280;SDS011;49406;51.044;3.766;2024-01-30T14:44:12;1.40;;;0.80;;
63280;SDS011;49406;51.044;3.766;2024-01-30T14:46:47;4.90;;;0.90;;
63280;SDS011;49406;51.044;3.766;2024-01-30T14:49:22;3.50;;;1.50;;
63280;SDS011;49406;51.044;3.766;2024-01-30T14:51:56;5.80;;;2.60;;
63280;SDS011;49406;51.044;3.766;2024-01-30T14:54:32;3.50;;;1.00;;
63280;SDS011;49406;51.044;3.766;2024-01-30T14:57:06;2.20;;;1.10;;
63280;SDS011;49406;51.044;3.766;2024-01-30T14:59:42;5.40;;;1.90;;
63280;SDS011;49406;51.044;3.766;2024-01-30T15:02:16;4.20;;;1.50;;
63280;SDS011;49406;51.044;3.766;2024-01-30T15:04:51;4.70;;;2.10;;
63280;SDS011;49406;51.044;3.766;2024-01-30T15:07:25;2.40;;;1.40;;
63280;SDS011;49406;51.044;3.766;2024-01-30T15:10:01;9.10;;;2.70;;
63280;SDS011;49406;51.044;3.766;2024-01-30T15:12:36;6.40;;;2.30;;
63280;SDS011;49406;51.044;3.766;2024-01-30T15:15:11;3.00;;;1.70;;
63280;SDS011;49406;51.044;3.766;2024-01-30T15:17:45;5.00;;;1.70;;
63280;SDS011;49406;51.044;3.766;2024-01-30T15:20:20;1.60;;;1.50;;
63280;SDS011;49406;51.044;3.766;2024-01-30T15:22:54;4.10;;;1.30;;
63280;SDS011;49406;51.044;3.766;2024-01-30T15:25:29;4.70;;;1.30;;
63280;SDS011;49406;51.044;3.766;2024-01-30T15:28:04;1.90;;;0.70;;
63280;SDS011;49406;51.044;3.766;2024-01-30T15:30:38;4.90;;;1.80;;
63280;SDS011;49406;51.044;3.766;2024-01-30T15:33:14;1.20;;;0.70;;
63280;SDS011;49406;51.044;3.766;2024-01-30T15:35:49;6.80;;;1.40;;
63280;SDS011;49406;51.044;3.766;2024-01-30T15:38:23;4.20;;;1.20;;
63280;SDS011;49406;51.044;3.766;2024-01-30T15:40:58;2.60;;;1.80;;
63280;SDS011;49406;51.044;3.766;2024-01-30T15:43:33;7.90;;;1.30;;
63280;SDS011;49406;51.044;3.766;2024-01-30T15:46:07;2.30;;;1.70;;
63280;SDS011;49406;51.044;3.766;2024-01-30T15:48:42;8.00;;;2.40;;
63280;SDS011;49406;51.044;3.766;2024-01-30T15:51:18;4.50;;;1.40;;
63280;SDS011;49406;51.044;3.766;2024-01-30T15:53:53;3.20;;;2.10;;
63280;SDS011;49406;51.044;3.766;2024-01-30T15:56:28;4.40;;;2.70;;
63280;SDS011;49406;51.044;3.766;2024-01-30T15:59:02;2.70;;;1.70;;
63280;SDS011;49406;51.044;3.766;2024-01-30T16:01:37;4.50;;;2.70;;
63280;SDS011;49406;51.044;3.766;2024-01-30T16:04:12;5.00;;;2.50;;
63280;SDS011;49406;51.044;3.766;2024-01-30T16:06:48;4.00;;;2.10;;
63280;SDS011;49406;51.044;3.766;2024-01-30T16:09:23;4.70;;;2.70;;